sensor_id;sensor_type;location;lat;lon;timestamp;P1;durP1;ratioP1;P2;durP2;ratioP2
22894;SDS011;11614;52.494;6.976;2023-07-02T00:02:20;5.20;;;2.30;;
22894;SDS011;11614;52.494;6.976;2023-07-02T00:04:46;3.23;;;2.40;;
22894;SDS011;11614;52.494;6.976;2023-07-02T00:07:12;3.63;;;2.23;;
22894;SDS011;11614;52.494;6.976;2023-07-02T00:09:39;4.97;;;2.50;;
22894;SDS011;11614;52.494;6.976;2023-07-02T00:12:05;4.40;;;2.30;;
22894;SDS011;11614;52.494;6.976;2023-07-02T00:14:31;3.27;;;1.63;;
22894;SDS011;11614;52.494;6.976;2023-07-02T00:16:57;2.40;;;1.77;;
22894;SDS011;11614;52.494;6.976;2023-07-02T00:19:23;5.00;;;2.50;;
22894;SDS011;11614;52.494;6.976;2023-07-02T00:21:49;4.07;;;2.27;;
22894;SDS011;11614;52.494;6.976;2023-07-02T00:24:15;4.17;;;2.17;;
22894;SDS011;11614;52.494;6.976;2023-07-02T00:26:41;4.07;;;2.80;;
22894;SDS011;11614;52.494;6.976;2023-07-02T00:29:07;5.13;;;2.30;;
22894;SDS011;11614;52.494;6.976;2023-07-02T00:31:34;4.07;;;2.10;;
22894;SDS011;11614;52.494;6.976;2023-07-02T00:34:00;2.63;;;1.77;;
22894;SDS011;11614;52.494;6.976;2023-07-02T00:36:27;3.13;;;2.13;;
22894;SDS011;11614;52.494;6.976;2023-07-02T00:38:53;9.17;;;4.23;;
22894;SDS011;11614;52.494;6.976;2023-07-02T00:41:18;6.77;;;4.10;;
22894;SDS011;11614;52.494;6.976;2023-07-02T00:43:44;5.63;;;3.70;;
22894;SDS011;11614;52.494;6.976;2023-07-02T00:46:14;3.80;;;2.80;;
22894;SDS011;11614;52.494;6.976;2023-07-02T00:48:47;6.80;;;3.00;;
22894;SDS011;11614;52.494;6.976;2023-07-02T00:51:15;3.53;;;2.37;;
22894;SDS011;11614;52.494;6.976;2023-07-02T00:53:45;3.77;;;2.63;;
22894;SDS011;11614;52.494;6.976;2023-07-02T00:56:12;4.50;;;2.37;;
22894;SDS011;11614;52.494;6.976;2023-07-02T00:58:39;3.33;;;2.10;;
22894;SDS011;11614;52.494;6.976;2023-07-02T01:03:56;5.70;;;3.53;;
22894;SDS011;11614;52.494;6.976;2023-07-02T01:06:29;5.73;;;3.43;;
22894;SDS011;11614;52.494;6.976;2023-07-02T01:08:57;4.60;;;2.97;;
22894;SDS011;11614;52.494;6.976;2023-07-02T01:11:27;4.60;;;2.30;;
22894;SDS011;11614;52.494;6.976;2023-07-02T01:13:57;6.17;;;3.97;;
22894;SDS011;11614;52.494;6.976;2023-07-02T01:16:27;8.07;;;5.13;;
22894;SDS011;11614;52.494;6.976;2023-07-02T01:18:55;5.17;;;2.53;;
22894;SDS011;11614;52.494;6.976;2023-07-02T01:21:23;4.53;;;2.43;;
22894;SDS011;11614;52.494;6.976;2023-07-02T01:23:49;7.27;;;2.57;;
22894;SDS011;11614;52.494;6.976;2023-07-02T01:26:15;5.23;;;2.73;;
22894;SDS011;11614;52.494;6.976;2023-07-02T01:28:41;4.00;;;2.70;;
22894;SDS011;11614;52.494;6.976;2023-07-02T01:31:07;4.60;;;2.97;;
22894;SDS011;11614;52.494;6.976;2023-07-02T01:33:33;4.40;;;2.77;;
22894;SDS011;11614;52.494;6.976;2023-07-02T01:35:59;7.67;;;3.17;;
22894;SDS011;11614;52.494;6.976;2023-07-02T01:38:25;5.83;;;2.90;;
22894;SDS011;11614;52.494;6.976;2023-07-02T01:40:52;5.27;;;2.80;;
22894;SDS011;11614;52.494;6.976;2023-07-02T01:43:18;4.87;;;2.80;;
22894;SDS011;11614;52.494;6.976;2023-07-02T01:45:43;4.23;;;2.70;;
22894;SDS011;11614;52.494;6.976;2023-07-02T01:48:09;5.80;;;2.70;;
22894;SDS011;11614;52.494;6.976;2023-07-02T01:50:35;5.73;;;2.57;;
22894;SDS011;11614;52.494;6.976;2023-07-02T01:53:01;5.40;;;2.70;;
22894;SDS011;11614;52.494;6.976;2023-07-02T01:55:27;5.20;;;2.83;;
22894;SDS011;11614;52.494;6.976;2023-07-02T01:57:53;5.53;;;3.13;;
22894;SDS011;11614;52.494;6.976;2023-07-02T02:00:19;6.27;;;3.07;;
22894;SDS011;11614;52.494;6.976;2023-07-02T02:02:45;6.27;;;3.23;;
22894;SDS011;11614;52.494;6.976;2023-07-02T02:05:11;7.37;;;3.60;;
22894;SDS011;11614;52.494;6.976;2023-07-02T02:07:37;7.73;;;3.63;;
22894;SDS011;11614;52.494;6.976;2023-07-02T02:10:03;7.57;;;3.47;;
22894;SDS011;11614;52.494;6.976;2023-07-02T02:12:29;7.47;;;3.00;;
22894;SDS011;11614;52.494;6.976;2023-07-02T02:14:56;8.67;;;3.47;;
22894;SDS011;11614;52.494;6.976;2023-07-02T02:17:22;10.40;;;4.00;;
22894;SDS011;11614;52.494;6.976;2023-07-02T02:19:49;11.90;;;4.10;;
22894;SDS011;11614;52.494;6.976;2023-07-02T02:22:15;8.20;;;2.97;;
22894;SDS011;11614;52.494;6.976;2023-07-02T02:24:41;8.27;;;3.60;;
22894;SDS011;11614;52.494;6.976;2023-07-02T02:27:07;9.50;;;4.03;;
22894;SDS011;11614;52.494;6.976;2023-07-02T02:29:33;8.90;;;4.07;;
22894;SDS011;11614;52.494;6.976;2023-07-02T02:31:59;12.50;;;4.53;;
22894;SDS011;11614;52.494;6.976;2023-07-02T02:34:25;14.50;;;5.57;;
22894;SDS011;11614;52.494;6.976;2023-07-02T02:36:51;8.50;;;4.03;;
22894;SDS011;11614;52.494;6.976;2023-07-02T02:39:20;10.37;;;4.20;;
22894;SDS011;11614;52.494;6.976;2023-07-02T02:41:46;9.37;;;4.30;;
22894;SDS011;11614;52.494;6.976;2023-07-02T02:44:12;11.83;;;4.10;;
22894;SDS011;11614;52.494;6.976;2023-07-02T02:46:38;9.30;;;4.20;;
22894;SDS011;11614;52.494;6.976;2023-07-02T02:49:04;13.13;;;4.53;;
22894;SDS011;11614;52.494;6.976;2023-07-02T02:51:29;8.80;;;4.43;;
22894;SDS011;11614;52.494;6.976;2023-07-02T02:53:55;7.30;;;4.03;;
22894;SDS011;11614;52.494;6.976;2023-07-02T02:56:21;6.97;;;3.20;;
22894;SDS011;11614;52.494;6.976;2023-07-02T02:58:47;10.23;;;4.43;;
22894;SDS011;11614;52.494;6.976;2023-07-02T03:01:13;14.43;;;3.77;;
22894;SDS011;11614;52.494;6.976;2023-07-02T03:03:40;8.70;;;4.07;;
22894;SDS011;11614;52.494;6.976;2023-07-02T03:06:09;9.67;;;4.13;;
22894;SDS011;11614;52.494;6.976;2023-07-02T03:08:36;12.13;;;4.90;;
22894;SDS011;11614;52.494;6.976;2023-07-02T03:11:01;14.57;;;4.33;;
22894;SDS011;11614;52.494;6.976;2023-07-02T03:13:27;8.77;;;4.50;;
22894;SDS011;11614;52.494;6.976;2023-07-02T03:15:53;11.40;;;4.27;;
22894;SDS011;11614;52.494;6.976;2023-07-02T03:18:19;10.50;;;4.50;;
22894;SDS011;11614;52.494;6.976;2023-07-02T03:20:45;12.27;;;4.27;;
22894;SDS011;11614;52.494;6.976;2023-07-02T03:23:11;9.50;;;4.93;;
22894;SDS011;11614;52.494;6.976;2023-07-02T03:25:37;11.57;;;4.57;;
22894;SDS011;11614;52.494;6.976;2023-07-02T03:28:03;16.90;;;4.60;;
22894;SDS011;11614;52.494;6.976;2023-07-02T03:30:29;10.70;;;4.40;;
22894;SDS011;11614;52.494;6.976;2023-07-02T03:32:55;8.30;;;3.50;;
22894;SDS011;11614;52.494;6.976;2023-07-02T03:35:21;9.77;;;4.60;;
22894;SDS011;11614;52.494;6.976;2023-07-02T03:37:47;8.43;;;3.80;;
22894;SDS011;11614;52.494;6.976;2023-07-02T03:40:13;9.53;;;4.37;;
22894;SDS011;11614;52.494;6.976;2023-07-02T03:42:39;10.97;;;4.60;;
22894;SDS011;11614;52.494;6.976;2023-07-02T03:45:05;8.93;;;4.10;;
22894;SDS011;11614;52.494;6.976;2023-07-02T03:47:31;10.53;;;3.80;;
22894;SDS011;11614;52.494;6.976;2023-07-02T03:49:57;13.83;;;5.20;;
22894;SDS011;11614;52.494;6.976;2023-07-02T03:52:23;11.63;;;5.17;;
22894;SDS011;11614;52.494;6.976;2023-07-02T03:54:49;11.30;;;4.83;;
22894;SDS011;11614;52.494;6.976;2023-07-02T03:57:15;10.90;;;4.70;;
22894;SDS011;11614;52.494;6.976;2023-07-02T03:59:41;11.00;;;4.37;;
22894;SDS011;11614;52.494;6.976;2023-07-02T04:02:07;12.43;;;5.17;;
22894;SDS011;11614;52.494;6.976;2023-07-02T04:04:33;15.93;;;5.70;;
22894;SDS011;11614;52.494;6.976;2023-07-02T04:06:59;15.03;;;4.73;;
22894;SDS011;11614;52.494;6.976;2023-07-02T04:09:25;12.43;;;5.80;;
22894;SDS011;11614;52.494;6.976;2023-07-02T04:11:51;13.47;;;4.90;;
22894;SDS011;11614;52.494;6.976;2023-07-02T04:14:17;9.63;;;3.70;;
22894;SDS011;11614;52.494;6.976;2023-07-02T04:16:43;18.67;;;5.93;;
22894;SDS011;11614;52.494;6.976;2023-07-02T04:19:10;12.67;;;5.17;;
22894;SDS011;11614;52.494;6.976;2023-07-02T04:21:35;10.23;;;5.47;;
22894;SDS011;11614;52.494;6.976;2023-07-02T04:24:01;10.93;;;5.47;;
22894;SDS011;11614;52.494;6.976;2023-07-02T04:26:27;12.70;;;5.27;;
22894;SDS011;11614;52.494;6.976;2023-07-02T04:28:54;10.20;;;5.30;;
22894;SDS011;11614;52.494;6.976;2023-07-02T04:31:20;13.37;;;5.30;;
22894;SDS011;11614;52.494;6.976;2023-07-02T04:33:46;11.43;;;4.53;;
22894;SDS011;11614;52.494;6.976;2023-07-02T04:36:12;14.47;;;5.90;;
22894;SDS011;11614;52.494;6.976;2023-07-02T04:38:38;12.43;;;4.10;;
22894;SDS011;11614;52.494;6.976;2023-07-02T04:41:04;10.73;;;5.10;;
22894;SDS011;11614;52.494;6.976;2023-07-02T04:43:33;14.80;;;5.60;;
22894;SDS011;11614;52.494;6.976;2023-07-02T04:45:59;16.43;;;5.70;;
22894;SDS011;11614;52.494;6.976;2023-07-02T04:48:25;15.67;;;5.13;;
22894;SDS011;11614;52.494;6.976;2023-07-02T04:50:51;13.90;;;6.13;;
22894;SDS011;11614;52.494;6.976;2023-07-02T04:53:17;13.00;;;4.47;;
22894;SDS011;11614;52.494;6.976;2023-07-02T04:55:43;8.33;;;4.03;;
22894;SDS011;11614;52.494;6.976;2023-07-02T04:58:09;11.67;;;5.73;;
22894;SDS011;11614;52.494;6.976;2023-07-02T05:00:35;13.30;;;5.13;;
22894;SDS011;11614;52.494;6.976;2023-07-02T05:03:01;18.02;;;5.25;;
22894;SDS011;11614;52.494;6.976;2023-07-02T05:05:27;12.65;;;5.25;;
22894;SDS011;11614;52.494;6.976;2023-07-02T05:07:54;13.68;;;6.03;;
22894;SDS011;11614;52.494;6.976;2023-07-02T05:10:20;11.63;;;5.90;;
22894;SDS011;11614;52.494;6.976;2023-07-02T05:12:46;12.65;;;5.53;;
22894;SDS011;11614;52.494;6.976;2023-07-02T05:15:12;15.18;;;5.78;;
22894;SDS011;11614;52.494;6.976;2023-07-02T05:17:38;14.02;;;5.53;;
22894;SDS011;11614;52.494;6.976;2023-07-02T05:20:04;12.13;;;6.10;;
22894;SDS011;11614;52.494;6.976;2023-07-02T05:22:30;11.25;;;5.15;;
22894;SDS011;11614;52.494;6.976;2023-07-02T05:24:56;13.07;;;4.63;;
22894;SDS011;11614;52.494;6.976;2023-07-02T05:27:22;11.30;;;4.60;;
22894;SDS011;11614;52.494;6.976;2023-07-02T05:29:48;17.08;;;6.57;;
22894;SDS011;11614;52.494;6.976;2023-07-02T05:32:14;13.40;;;5.20;;
22894;SDS011;11614;52.494;6.976;2023-07-02T05:34:40;12.63;;;5.60;;
22894;SDS011;11614;52.494;6.976;2023-07-02T05:37:06;14.15;;;6.20;;
22894;SDS011;11614;52.494;6.976;2023-07-02T05:39:33;12.77;;;6.68;;
22894;SDS011;11614;52.494;6.976;2023-07-02T05:41:59;11.20;;;5.60;;
22894;SDS011;11614;52.494;6.976;2023-07-02T05:44:25;9.90;;;5.22;;
22894;SDS011;11614;52.494;6.976;2023-07-02T05:46:51;13.52;;;5.78;;
22894;SDS011;11614;52.494;6.976;2023-07-02T05:49:17;9.82;;;4.80;;
22894;SDS011;11614;52.494;6.976;2023-07-02T05:51:43;14.18;;;6.68;;
22894;SDS011;11614;52.494;6.976;2023-07-02T05:54:09;9.20;;;4.65;;
22894;SDS011;11614;52.494;6.976;2023-07-02T05:56:35;13.02;;;6.18;;
22894;SDS011;11614;52.494;6.976;2023-07-02T05:59:01;12.10;;;5.30;;
22894;SDS011;11614;52.494;6.976;2023-07-02T06:01:27;13.63;;;6.05;;
22894;SDS011;11614;52.494;6.976;2023-07-02T06:03:53;12.75;;;4.88;;
22894;SDS011;11614;52.494;6.976;2023-07-02T06:06:21;11.93;;;5.18;;
22894;SDS011;11614;52.494;6.976;2023-07-02T06:08:48;9.90;;;4.43;;
22894;SDS011;11614;52.494;6.976;2023-07-02T06:11:15;13.93;;;5.68;;
22894;SDS011;11614;52.494;6.976;2023-07-02T06:13:41;13.95;;;5.90;;
22894;SDS011;11614;52.494;6.976;2023-07-02T06:16:07;12.05;;;4.95;;
22894;SDS011;11614;52.494;6.976;2023-07-02T06:18:33;10.07;;;3.80;;
22894;SDS011;11614;52.494;6.976;2023-07-02T06:20:58;15.20;;;6.53;;
22894;SDS011;11614;52.494;6.976;2023-07-02T06:23:25;13.70;;;6.13;;
22894;SDS011;11614;52.494;6.976;2023-07-02T06:25:51;11.77;;;5.65;;
22894;SDS011;11614;52.494;6.976;2023-07-02T06:28:18;18.38;;;7.10;;
22894;SDS011;11614;52.494;6.976;2023-07-02T06:30:44;11.80;;;6.03;;
22894;SDS011;11614;52.494;6.976;2023-07-02T06:33:10;13.15;;;6.13;;
22894;SDS011;11614;52.494;6.976;2023-07-02T06:35:36;10.15;;;4.45;;
22894;SDS011;11614;52.494;6.976;2023-07-02T06:38:02;12.32;;;5.97;;
22894;SDS011;11614;52.494;6.976;2023-07-02T06:40:28;17.55;;;7.03;;
22894;SDS011;11614;52.494;6.976;2023-07-02T06:42:54;14.20;;;6.40;;
22894;SDS011;11614;52.494;6.976;2023-07-02T06:45:20;9.40;;;3.35;;
22894;SDS011;11614;52.494;6.976;2023-07-02T06:47:46;12.30;;;5.95;;
22894;SDS011;11614;52.494;6.976;2023-07-02T06:50:12;16.88;;;5.72;;
22894;SDS011;11614;52.494;6.976;2023-07-02T06:52:38;13.27;;;5.65;;
22894;SDS011;11614;52.494;6.976;2023-07-02T06:55:04;12.43;;;5.95;;
22894;SDS011;11614;52.494;6.976;2023-07-02T06:57:30;13.55;;;5.88;;
22894;SDS011;11614;52.494;6.976;2023-07-02T06:59:59;17.52;;;6.85;;
22894;SDS011;11614;52.494;6.976;2023-07-02T07:02:26;12.38;;;6.15;;
22894;SDS011;11614;52.494;6.976;2023-07-02T07:04:52;11.48;;;5.07;;
22894;SDS011;11614;52.494;6.976;2023-07-02T07:07:18;10.32;;;5.13;;
22894;SDS011;11614;52.494;6.976;2023-07-02T07:09:44;14.57;;;6.38;;
22894;SDS011;11614;52.494;6.976;2023-07-02T07:12:10;13.07;;;4.90;;
22894;SDS011;11614;52.494;6.976;2023-07-02T07:14:36;13.13;;;5.93;;
22894;SDS011;11614;52.494;6.976;2023-07-02T07:17:02;16.02;;;5.85;;
22894;SDS011;11614;52.494;6.976;2023-07-02T07:19:28;13.52;;;5.43;;
22894;SDS011;11614;52.494;6.976;2023-07-02T07:21:54;10.93;;;4.95;;
22894;SDS011;11614;52.494;6.976;2023-07-02T07:24:20;13.50;;;5.40;;
22894;SDS011;11614;52.494;6.976;2023-07-02T07:26:46;15.50;;;6.63;;
22894;SDS011;11614;52.494;6.976;2023-07-02T07:29:11;17.73;;;6.88;;
22894;SDS011;11614;52.494;6.976;2023-07-02T07:31:37;18.50;;;7.00;;
22894;SDS011;11614;52.494;6.976;2023-07-02T07:34:03;11.00;;;5.30;;
22894;SDS011;11614;52.494;6.976;2023-07-02T07:36:29;10.68;;;4.20;;
22894;SDS011;11614;52.494;6.976;2023-07-02T07:38:55;10.02;;;4.72;;
22894;SDS011;11614;52.494;6.976;2023-07-02T07:41:21;12.70;;;5.63;;
22894;SDS011;11614;52.494;6.976;2023-07-02T07:43:47;11.30;;;4.95;;
22894;SDS011;11614;52.494;6.976;2023-07-02T07:46:13;12.60;;;4.97;;
22894;SDS011;11614;52.494;6.976;2023-07-02T07:48:38;12.82;;;4.90;;
22894;SDS011;11614;52.494;6.976;2023-07-02T07:51:04;14.63;;;6.15;;
22894;SDS011;11614;52.494;6.976;2023-07-02T07:53:30;11.18;;;5.32;;
22894;SDS011;11614;52.494;6.976;2023-07-02T07:55:56;13.70;;;4.53;;
22894;SDS011;11614;52.494;6.976;2023-07-02T07:58:22;14.02;;;6.55;;
22894;SDS011;11614;52.494;6.976;2023-07-02T08:00:49;9.20;;;4.25;;
22894;SDS011;11614;52.494;6.976;2023-07-02T08:03:14;13.60;;;5.15;;
22894;SDS011;11614;52.494;6.976;2023-07-02T08:05:40;6.18;;;2.60;;
22894;SDS011;11614;52.494;6.976;2023-07-02T08:08:06;11.27;;;5.28;;
22894;SDS011;11614;52.494;6.976;2023-07-02T08:10:33;7.32;;;3.83;;
22894;SDS011;11614;52.494;6.976;2023-07-02T08:12:59;12.85;;;4.72;;
22894;SDS011;11614;52.494;6.976;2023-07-02T08:15:24;7.28;;;3.30;;
22894;SDS011;11614;52.494;6.976;2023-07-02T08:17:50;11.15;;;5.13;;
22894;SDS011;11614;52.494;6.976;2023-07-02T08:20:19;12.23;;;4.60;;
22894;SDS011;11614;52.494;6.976;2023-07-02T08:22:44;8.02;;;3.90;;
22894;SDS011;11614;52.494;6.976;2023-07-02T08:25:10;13.10;;;4.95;;
22894;SDS011;11614;52.494;6.976;2023-07-02T08:27:36;8.55;;;4.85;;
22894;SDS011;11614;52.494;6.976;2023-07-02T08:30:02;10.63;;;5.03;;
22894;SDS011;11614;52.494;6.976;2023-07-02T08:32:28;9.00;;;4.70;;
22894;SDS011;11614;52.494;6.976;2023-07-02T08:34:54;10.25;;;4.20;;
22894;SDS011;11614;52.494;6.976;2023-07-02T08:37:21;7.07;;;4.22;;
22894;SDS011;11614;52.494;6.976;2023-07-02T08:39:48;8.43;;;4.63;;
22894;SDS011;11614;52.494;6.976;2023-07-02T08:42:14;10.25;;;4.10;;
22894;SDS011;11614;52.494;6.976;2023-07-02T08:44:41;9.18;;;3.47;;
22894;SDS011;11614;52.494;6.976;2023-07-02T08:47:07;12.65;;;5.30;;
22894;SDS011;11614;52.494;6.976;2023-07-02T08:49:33;9.30;;;4.28;;
22894;SDS011;11614;52.494;6.976;2023-07-02T08:51:59;8.98;;;3.45;;
22894;SDS011;11614;52.494;6.976;2023-07-02T08:54:25;9.32;;;4.47;;
22894;SDS011;11614;52.494;6.976;2023-07-02T08:56:50;7.75;;;1.98;;
22894;SDS011;11614;52.494;6.976;2023-07-02T08:59:16;10.25;;;4.13;;
22894;SDS011;11614;52.494;6.976;2023-07-02T09:01:48;9.55;;;3.63;;
22894;SDS011;11614;52.494;6.976;2023-07-02T09:04:24;10.10;;;3.97;;
22894;SDS011;11614;52.494;6.976;2023-07-02T09:07:09;7.57;;;3.13;;
22894;SDS011;11614;52.494;6.976;2023-07-02T09:09:45;8.45;;;3.53;;
22894;SDS011;11614;52.494;6.976;2023-07-02T09:15:00;7.60;;;4.85;;
22894;SDS011;11614;52.494;6.976;2023-07-02T09:17:30;8.52;;;3.75;;
22894;SDS011;11614;52.494;6.976;2023-07-02T09:19:56;10.15;;;4.40;;
22894;SDS011;11614;52.494;6.976;2023-07-02T09:22:23;13.32;;;5.15;;
22894;SDS011;11614;52.494;6.976;2023-07-02T09:24:53;10.52;;;3.90;;
22894;SDS011;11614;52.494;6.976;2023-07-02T09:27:20;7.82;;;4.15;;
22894;SDS011;11614;52.494;6.976;2023-07-02T09:29:49;7.88;;;4.05;;
22894;SDS011;11614;52.494;6.976;2023-07-02T09:32:25;9.25;;;4.70;;
22894;SDS011;11614;52.494;6.976;2023-07-02T09:34:54;6.88;;;4.47;;
22894;SDS011;11614;52.494;6.976;2023-07-02T09:37:21;6.50;;;3.67;;
22894;SDS011;11614;52.494;6.976;2023-07-02T09:39:48;9.07;;;4.30;;
22894;SDS011;11614;52.494;6.976;2023-07-02T09:42:16;10.10;;;3.45;;
22894;SDS011;11614;52.494;6.976;2023-07-02T09:44:44;6.55;;;3.40;;
22894;SDS011;11614;52.494;6.976;2023-07-02T09:47:10;7.82;;;3.50;;
22894;SDS011;11614;52.494;6.976;2023-07-02T09:52:04;8.35;;;4.75;;
22894;SDS011;11614;52.494;6.976;2023-07-02T09:54:31;8.05;;;3.33;;
22894;SDS011;11614;52.494;6.976;2023-07-02T09:56:58;6.93;;;3.50;;
22894;SDS011;11614;52.494;6.976;2023-07-02T09:59:24;8.25;;;3.50;;
22894;SDS011;11614;52.494;6.976;2023-07-02T10:01:50;8.93;;;4.22;;
22894;SDS011;11614;52.494;6.976;2023-07-02T10:04:17;7.63;;;4.18;;
22894;SDS011;11614;52.494;6.976;2023-07-02T10:06:44;6.85;;;4.60;;
22894;SDS011;11614;52.494;6.976;2023-07-02T10:09:10;6.03;;;3.15;;
22894;SDS011;11614;52.494;6.976;2023-07-02T10:11:36;7.10;;;2.70;;
22894;SDS011;11614;52.494;6.976;2023-07-02T10:14:02;6.25;;;3.42;;
22894;SDS011;11614;52.494;6.976;2023-07-02T10:16:28;9.13;;;3.90;;
22894;SDS011;11614;52.494;6.976;2023-07-02T10:19:07;5.07;;;2.50;;
22894;SDS011;11614;52.494;6.976;2023-07-02T10:21:34;5.05;;;3.30;;
22894;SDS011;11614;52.494;6.976;2023-07-02T10:24:13;4.88;;;2.85;;
22894;SDS011;11614;52.494;6.976;2023-07-02T10:26:50;4.03;;;2.70;;
22894;SDS011;11614;52.494;6.976;2023-07-02T10:29:20;4.95;;;3.33;;
22894;SDS011;11614;52.494;6.976;2023-07-02T10:31:49;6.32;;;2.75;;
22894;SDS011;11614;52.494;6.976;2023-07-02T10:34:16;4.25;;;2.75;;
22894;SDS011;11614;52.494;6.976;2023-07-02T10:36:42;5.88;;;2.53;;
22894;SDS011;11614;52.494;6.976;2023-07-02T10:39:08;5.75;;;3.05;;
22894;SDS011;11614;52.494;6.976;2023-07-02T10:41:34;4.63;;;2.72;;
22894;SDS011;11614;52.494;6.976;2023-07-02T10:44:07;5.03;;;3.20;;
22894;SDS011;11614;52.494;6.976;2023-07-02T10:46:33;5.60;;;2.47;;
22894;SDS011;11614;52.494;6.976;2023-07-02T10:48:59;3.55;;;2.10;;
22894;SDS011;11614;52.494;6.976;2023-07-02T10:51:26;4.20;;;2.40;;
22894;SDS011;11614;52.494;6.976;2023-07-02T10:54:00;4.45;;;2.28;;
22894;SDS011;11614;52.494;6.976;2023-07-02T10:56:26;3.97;;;2.05;;
22894;SDS011;11614;52.494;6.976;2023-07-02T10:58:53;6.85;;;3.33;;
22894;SDS011;11614;52.494;6.976;2023-07-02T11:01:25;5.03;;;2.58;;
22894;SDS011;11614;52.494;6.976;2023-07-02T11:03:58;4.13;;;2.55;;
22894;SDS011;11614;52.494;6.976;2023-07-02T11:06:24;6.53;;;3.45;;
22894;SDS011;11614;52.494;6.976;2023-07-02T11:08:51;5.45;;;3.78;;
22894;SDS011;11614;52.494;6.976;2023-07-02T11:11:17;3.92;;;2.95;;
22894;SDS011;11614;52.494;6.976;2023-07-02T11:13:43;7.00;;;3.10;;
22894;SDS011;11614;52.494;6.976;2023-07-02T11:16:24;5.88;;;3.58;;
22894;SDS011;11614;52.494;6.976;2023-07-02T11:18:54;8.10;;;3.63;;
22894;SDS011;11614;52.494;6.976;2023-07-02T11:21:20;5.32;;;3.55;;
22894;SDS011;11614;52.494;6.976;2023-07-02T11:23:46;5.05;;;2.78;;
22894;SDS011;11614;52.494;6.976;2023-07-02T11:26:12;5.40;;;3.22;;
22894;SDS011;11614;52.494;6.976;2023-07-02T11:28:47;4.47;;;3.20;;
22894;SDS011;11614;52.494;6.976;2023-07-02T11:31:14;5.75;;;3.30;;
22894;SDS011;11614;52.494;6.976;2023-07-02T11:33:40;7.03;;;4.07;;
22894;SDS011;11614;52.494;6.976;2023-07-02T11:36:07;5.10;;;1.80;;
22894;SDS011;11614;52.494;6.976;2023-07-02T11:38:33;7.05;;;2.88;;
22894;SDS011;11614;52.494;6.976;2023-07-02T11:41:02;5.63;;;3.08;;
22894;SDS011;11614;52.494;6.976;2023-07-02T11:43:28;6.65;;;3.53;;
22894;SDS011;11614;52.494;6.976;2023-07-02T11:45:54;3.10;;;1.73;;
22894;SDS011;11614;52.494;6.976;2023-07-02T11:48:20;7.05;;;2.45;;
22894;SDS011;11614;52.494;6.976;2023-07-02T11:50:46;4.75;;;2.83;;
22894;SDS011;11614;52.494;6.976;2023-07-02T11:53:11;4.65;;;2.33;;
22894;SDS011;11614;52.494;6.976;2023-07-02T11:55:37;5.30;;;2.30;;
22894;SDS011;11614;52.494;6.976;2023-07-02T11:58:04;3.65;;;1.95;;
22894;SDS011;11614;52.494;6.976;2023-07-02T12:00:30;5.07;;;2.85;;
22894;SDS011;11614;52.494;6.976;2023-07-02T12:02:56;4.07;;;1.95;;
22894;SDS011;11614;52.494;6.976;2023-07-02T12:05:21;4.25;;;2.53;;
22894;SDS011;11614;52.494;6.976;2023-07-02T12:07:47;5.22;;;2.90;;
22894;SDS011;11614;52.494;6.976;2023-07-02T12:10:13;4.88;;;2.33;;
22894;SDS011;11614;52.494;6.976;2023-07-02T12:12:39;5.47;;;2.85;;
22894;SDS011;11614;52.494;6.976;2023-07-02T12:15:05;6.05;;;2.45;;
22894;SDS011;11614;52.494;6.976;2023-07-02T12:17:32;4.90;;;3.00;;
22894;SDS011;11614;52.494;6.976;2023-07-02T12:19:58;7.15;;;2.53;;
22894;SDS011;11614;52.494;6.976;2023-07-02T12:22:24;5.13;;;2.58;;
22894;SDS011;11614;52.494;6.976;2023-07-02T12:24:50;6.18;;;2.67;;
22894;SDS011;11614;52.494;6.976;2023-07-02T12:27:18;4.50;;;3.10;;
22894;SDS011;11614;52.494;6.976;2023-07-02T12:29:44;6.57;;;2.65;;
22894;SDS011;11614;52.494;6.976;2023-07-02T12:32:10;5.57;;;2.45;;
22894;SDS011;11614;52.494;6.976;2023-07-02T12:34:36;4.22;;;2.42;;
22894;SDS011;11614;52.494;6.976;2023-07-02T12:37:02;4.55;;;1.92;;
22894;SDS011;11614;52.494;6.976;2023-07-02T12:39:28;5.95;;;2.75;;
22894;SDS011;11614;52.494;6.976;2023-07-02T12:41:54;2.38;;;1.13;;
22894;SDS011;11614;52.494;6.976;2023-07-02T12:44:20;5.38;;;2.15;;
22894;SDS011;11614;52.494;6.976;2023-07-02T12:46:46;2.78;;;1.80;;
22894;SDS011;11614;52.494;6.976;2023-07-02T12:49:12;1.58;;;1.30;;
22894;SDS011;11614;52.494;6.976;2023-07-02T12:51:38;3.15;;;1.40;;
22894;SDS011;11614;52.494;6.976;2023-07-02T12:54:04;3.33;;;2.05;;
22894;SDS011;11614;52.494;6.976;2023-07-02T12:56:30;3.92;;;2.20;;
22894;SDS011;11614;52.494;6.976;2023-07-02T12:58:56;3.83;;;1.85;;
22894;SDS011;11614;52.494;6.976;2023-07-02T13:01:22;3.78;;;1.92;;
22894;SDS011;11614;52.494;6.976;2023-07-02T13:03:49;2.97;;;1.75;;
22894;SDS011;11614;52.494;6.976;2023-07-02T13:06:15;4.47;;;2.55;;
22894;SDS011;11614;52.494;6.976;2023-07-02T13:08:41;4.35;;;1.70;;
22894;SDS011;11614;52.494;6.976;2023-07-02T13:11:07;4.32;;;2.20;;
22894;SDS011;11614;52.494;6.976;2023-07-02T13:13:34;3.63;;;1.83;;
22894;SDS011;11614;52.494;6.976;2023-07-02T13:16:01;3.17;;;1.95;;
22894;SDS011;11614;52.494;6.976;2023-07-02T13:18:27;2.92;;;2.00;;
22894;SDS011;11614;52.494;6.976;2023-07-02T13:20:53;7.63;;;2.88;;
22894;SDS011;11614;52.494;6.976;2023-07-02T13:23:19;4.70;;;2.22;;
22894;SDS011;11614;52.494;6.976;2023-07-02T13:25:45;4.43;;;1.80;;
22894;SDS011;11614;52.494;6.976;2023-07-02T13:28:11;3.60;;;2.08;;
22894;SDS011;11614;52.494;6.976;2023-07-02T13:30:37;4.60;;;2.45;;
22894;SDS011;11614;52.494;6.976;2023-07-02T13:33:03;4.55;;;2.20;;
22894;SDS011;11614;52.494;6.976;2023-07-02T13:35:29;3.88;;;1.88;;
22894;SDS011;11614;52.494;6.976;2023-07-02T13:37:56;4.65;;;2.17;;
22894;SDS011;11614;52.494;6.976;2023-07-02T13:40:24;7.13;;;3.35;;
22894;SDS011;11614;52.494;6.976;2023-07-02T13:42:50;2.67;;;2.03;;
22894;SDS011;11614;52.494;6.976;2023-07-02T13:45:16;4.55;;;2.80;;
22894;SDS011;11614;52.494;6.976;2023-07-02T13:47:42;2.72;;;2.15;;
22894;SDS011;11614;52.494;6.976;2023-07-02T13:50:08;5.88;;;2.90;;
22894;SDS011;11614;52.494;6.976;2023-07-02T13:52:34;6.47;;;3.13;;
22894;SDS011;11614;52.494;6.976;2023-07-02T13:55:00;6.30;;;2.65;;
22894;SDS011;11614;52.494;6.976;2023-07-02T13:57:26;5.93;;;3.00;;
22894;SDS011;11614;52.494;6.976;2023-07-02T13:59:52;4.68;;;2.60;;
22894;SDS011;11614;52.494;6.976;2023-07-02T14:02:18;6.78;;;3.70;;
22894;SDS011;11614;52.494;6.976;2023-07-02T14:04:44;3.45;;;2.33;;
22894;SDS011;11614;52.494;6.976;2023-07-02T14:07:11;4.72;;;2.72;;
22894;SDS011;11614;52.494;6.976;2023-07-02T14:09:37;7.57;;;3.78;;
22894;SDS011;11614;52.494;6.976;2023-07-02T14:12:03;4.15;;;1.80;;
22894;SDS011;11614;52.494;6.976;2023-07-02T14:14:29;6.72;;;2.60;;
22894;SDS011;11614;52.494;6.976;2023-07-02T14:16:55;5.15;;;3.03;;
22894;SDS011;11614;52.494;6.976;2023-07-02T14:19:20;5.25;;;3.00;;
22894;SDS011;11614;52.494;6.976;2023-07-02T14:21:46;4.85;;;2.70;;
22894;SDS011;11614;52.494;6.976;2023-07-02T14:24:14;4.30;;;2.72;;
22894;SDS011;11614;52.494;6.976;2023-07-02T14:26:40;5.05;;;3.22;;
22894;SDS011;11614;52.494;6.976;2023-07-02T14:29:06;5.95;;;2.83;;
22894;SDS011;11614;52.494;6.976;2023-07-02T14:31:32;3.65;;;2.88;;
22894;SDS011;11614;52.494;6.976;2023-07-02T14:33:57;4.50;;;2.17;;
22894;SDS011;11614;52.494;6.976;2023-07-02T14:36:24;4.15;;;2.10;;
22894;SDS011;11614;52.494;6.976;2023-07-02T14:38:50;4.63;;;3.33;;
22894;SDS011;11614;52.494;6.976;2023-07-02T14:41:16;3.65;;;2.35;;
22894;SDS011;11614;52.494;6.976;2023-07-02T14:43:42;4.18;;;2.22;;
22894;SDS011;11614;52.494;6.976;2023-07-02T14:46:08;6.30;;;2.75;;
22894;SDS011;11614;52.494;6.976;2023-07-02T14:48:34;5.15;;;2.17;;